• Join FlightAware (Why Join?)
  • Login
  • US Flag 
07:20PM EST


 

Airport Tracker/Info


-or-


 

Live Flight TrackerFlight Track Log ✈ N75ZM ✈ 16-Sep-2013 ✈ KRDU - KGSP

Flight Track Log - Related Links

Times and Time Zones

All times are in EDT time to prevent confusion due to time zone crossing. See the N75ZM flight status page for this flight to view local times or setup timezone preferences in your user account.

Time Position Orientation Groundspeed Altitude Reporting Facility
EDT Latitude Longitude Course Direction KTS MPH feet Rate Location/Type
04:52PM 35.8858 -78.7889 82° East 89 102 1,100  Level Washington Center
04:52PM 35.8861 -78.7864 82° East 89 102 1,200 840 Climbing Washington Center
04:53PM 35.8744 -78.7500 112° Southeast 140 161 2,100 840 Climbing Washington Center
04:54PM 35.8461 -78.7156 135° Southeast 145 167 3,000 840 Climbing Washington Center
04:55PM 35.8092 -78.6936 154° Southeast 140 161 4,000 480 Climbing Washington Center
04:56PM 35.7594 -78.6764 164° South 174 200 4,100 120 Climbing Washington Center
04:57PM 35.7156 -78.6797 184° South 181 208 4,300 420 Climbing Washington Center
04:58PM 35.6811 -78.7194 223° Southwest 159 183 5,000 660 Climbing Washington Center
04:59PM 35.6450 -78.7486 213° Southwest 146 168 5,800 600 Climbing Washington Center
05:00PM 35.6128 -78.7781 217° Southwest 142 163 6,400 540 Climbing Washington Center
05:01PM 35.5767 -78.8072 213° Southwest 148 170 6,900 60 Climbing Washington Center
05:03PM 35.5615 -78.8896 257° West  Level Estimated
05:10PM 35.4937 -79.2532 257° West  Level Estimated
05:11PM 35.4840 -79.3051 257° West  Level Estimated
05:12PM 35.4438 -79.3177 194° South  Level FlightAware Approximate
05:13PM 35.4037 -79.3302 194° South  Level FlightAware Approximate
05:14PM 35.3636 -79.3428 194° South  Level FlightAware Approximate
05:15PM 35.3234 -79.3553 194° South  Level FlightAware Approximate
05:16PM 35.2833 -79.3678 194° South  Level FlightAware Approximate
05:17PM 35.2764 -79.4234 231° Southwest  Level Estimated
05:18PM 35.2447 -79.4641 226° Southwest  Level FlightAware Approximate
05:19PM 35.2130 -79.5048 226° Southwest  Level FlightAware Approximate
05:20PM 35.1812 -79.5455 226° Southwest  Level FlightAware Approximate
05:21PM 35.1494 -79.5861 226° Southwest  Level FlightAware Approximate
05:22PM 35.1177 -79.6267 226° Southwest  Level FlightAware Approximate
05:23PM 35.0859 -79.6672 226° Southwest  Level FlightAware Approximate
05:24PM 35.0541 -79.7077 226° Southwest  Level FlightAware Approximate
05:25PM 35.0223 -79.7482 226° Southwest  Level FlightAware Approximate
05:26PM 34.9905 -79.7887 226° Southwest  Level FlightAware Approximate
05:27PM 34.9586 -79.8291 226° Southwest  Level FlightAware Approximate
05:27PM 34.8733 -79.9272 225° Southwest 162 186 8,100  Level Atlanta Center
05:28PM 34.9268 -79.8695 226° Southwest  Level FlightAware Approximate
05:28PM 34.8456 -79.9692 231° Southwest 162 186 8,100  Level Atlanta Center
05:29PM 34.8949 -79.9099 226° Southwest  Level FlightAware Approximate
05:29PM 34.8217 -80.0108 235° Southwest 162 186 8,100  Level Atlanta Center
05:30PM 34.8954 -79.9659 231° Southwest  Level Estimated
05:30PM 34.8278 -80.0661 278° West 154 177 8,100  Level Atlanta Center
05:31PM 34.8631 -80.0057 225° Southwest  Level FlightAware Approximate
05:31PM 34.8294 -80.1167 272° West 153 176 8,100  Level Atlanta Center
05:32PM 34.8307 -80.0454 225° Southwest  Level FlightAware Approximate
05:32PM 34.8311 -80.1747 272° West 152 175 8,100  Level Atlanta Center
05:33PM 34.8308 -80.2253 270° West 153 176 8,100  Level Atlanta Center
05:34PM 34.8344 -80.2758 275° West 154 177 8,100  Level Atlanta Center
05:35PM 34.8383 -80.3364 274° West 156 180 8,100  Level Atlanta Center
05:36PM 34.8400 -80.3894 272° West 155 178 8,100  Level Atlanta Center
05:37PM 34.8436 -80.4425 275° West 154 177 8,100  Level Atlanta Center
05:38PM 34.8428 -80.4931 269° West 153 176 8,100  Level Atlanta Center
05:39PM 34.8444 -80.5436 272° West 154 177 8,100  Level Atlanta Center
05:40PM 34.8481 -80.5967 275° West 154 177 8,100  Level Atlanta Center
05:41PM 34.8472 -80.6472 269° West 156 180 8,100  Level Atlanta Center
05:42PM 34.8508 -80.7053 274° West 154 177 8,100  Level Atlanta Center
05:43PM 34.8522 -80.7583 272° West 155 178 8,100  Level Atlanta Center
05:44PM 34.8536 -80.8089 272° West 157 181 8,100  Level Atlanta Center
05:46PM 34.8575 -80.8722 274° West 159 183 8,100  Level Atlanta Center
05:46PM 34.8586 -80.9228 272° West 161 185 8,100  Level Atlanta Center
05:48PM 34.8600 -80.9783 272° West 162 186 8,100  Level Atlanta Center
05:48PM 34.8614 -81.0264 272° West 161 185 8,100  Level Atlanta Center
05:49PM 34.8647 -81.0819 274° West 163 188 8,100  Level Atlanta Center
05:50PM 34.8661 -81.1375 272° West 165 190 8,100  Level Atlanta Center
05:52PM 34.8653 -81.1983 269° West 165 190 8,100  Level Atlanta Center
05:53PM 34.8689 -81.2539 275° West 166 191 8,100  Level Atlanta Center
05:54PM 34.8703 -81.3172 272° West 166 191 8,100  Level Atlanta Center
05:55PM 34.8714 -81.3703 271° West 165 190 8,100 -300 Level Atlanta Center
05:56PM 34.8769 -81.4308 276° West 172 198 7,600 -480 Descending Atlanta Center
05:57PM 34.8739 -81.4944 267° West 186 214 7,200 -540 Descending Atlanta Center
05:58PM 34.8711 -81.5553 267° West 189 217 6,600 -540 Descending Atlanta Center
05:59PM 34.8722 -81.6108 271° West 178 205 6,200 -480 Descending Atlanta Center